Terminal Aerodrome Forecast
Issued by NWS

Home | Current Version | Previous Version | Text Only | Print | Product List | Glossary On
Versions: 1 2 3 4 5 6 7 8 9 10 11 12
000
FTAK31 PAFA 261724
TAFAOM
TAF
PAOM 261724Z 2618/2718 02005KT P6SM SCT070 BKN130 BKN180
     FM262200 13006KT P6SM -SHRA BKN040 OVC080
     FM270400 08004KT P6SM VCSH BKN040 OVC080=

USA.gov is the U.S. government's official web portal to all federal, state and local government web resources and services.